sensor_id;sensor_type;location;lat;lon;timestamp;P1;durP1;ratioP1;P2;durP2;ratioP2
62475;SDS011;50739;45.670;11.936;2022-09-17T00:03:49;0.80;;;0.20;;
62475;SDS011;50739;45.670;11.936;2022-09-17T00:08:53;0.40;;;0.20;;
62475;SDS011;50739;45.670;11.936;2022-09-17T00:13:58;1.33;;;0.30;;
62475;SDS011;50739;45.670;11.936;2022-09-17T00:19:01;0.20;;;0.10;;
62475;SDS011;50739;45.670;11.936;2022-09-17T00:24:05;0.50;;;0.10;;
62475;SDS011;50739;45.670;11.936;2022-09-17T00:29:09;0.17;;;0.08;;
62475;SDS011;50739;45.670;11.936;2022-09-17T00:34:11;0.75;;;0.17;;
62475;SDS011;50739;45.670;11.936;2022-09-17T00:39:13;0.50;;;0.20;;
62475;SDS011;50739;45.670;11.936;2022-09-17T00:44:40;0.10;;;0.10;;
62475;SDS011;50739;45.670;11.936;2022-09-17T00:49:45;0.10;;;0.10;;
62475;SDS011;50739;45.670;11.936;2022-09-17T00:54:50;0.15;;;0.10;;
62475;SDS011;50739;45.670;11.936;2022-09-17T00:59:56;0.50;;;0.10;;
62475;SDS011;50739;45.670;11.936;2022-09-17T01:04:58;0.40;;;0.10;;
62475;SDS011;50739;45.670;11.936;2022-09-17T01:10:02;0.85;;;0.20;;
62475;SDS011;50739;45.670;11.936;2022-09-17T01:15:17;0.20;;;0.10;;
62475;SDS011;50739;45.670;11.936;2022-09-17T01:20:39;0.35;;;0.13;;
62475;SDS011;50739;45.670;11.936;2022-09-17T01:25:56;1.10;;;0.20;;
62475;SDS011;50739;45.670;11.936;2022-09-17T01:31:27;0.80;;;0.40;;
62475;SDS011;50739;45.670;11.936;2022-09-17T01:36:39;0.60;;;0.10;;
62475;SDS011;50739;45.670;11.936;2022-09-17T01:41:50;1.25;;;0.10;;
62475;SDS011;50739;45.670;11.936;2022-09-17T01:46:58;0.30;;;0.15;;
62475;SDS011;50739;45.670;11.936;2022-09-17T01:52:05;0.10;;;0.03;;
62475;SDS011;50739;45.670;11.936;2022-09-17T01:57:11;0.10;;;0.10;;
62475;SDS011;50739;45.670;11.936;2022-09-17T02:02:20;0.65;;;0.28;;
62475;SDS011;50739;45.670;11.936;2022-09-17T02:07:26;0.22;;;0.13;;
62475;SDS011;50739;45.670;11.936;2022-09-17T02:12:32;2.50;;;0.80;;
62475;SDS011;50739;45.670;11.936;2022-09-17T02:17:41;0.65;;;0.10;;
62475;SDS011;50739;45.670;11.936;2022-09-17T02:22:47;0.10;;;0.10;;
62475;SDS011;50739;45.670;11.936;2022-09-17T02:27:55;0.20;;;0.10;;
62475;SDS011;50739;45.670;11.936;2022-09-17T02:33:03;0.10;;;0.00;;
62475;SDS011;50739;45.670;11.936;2022-09-17T02:38:07;0.10;;;0.10;;
62475;SDS011;50739;45.670;11.936;2022-09-17T02:43:12;0.10;;;0.10;;
62475;SDS011;50739;45.670;11.936;2022-09-17T02:48:42;0.10;;;0.00;;
62475;SDS011;50739;45.670;11.936;2022-09-17T02:54:04;0.13;;;0.10;;
62475;SDS011;50739;45.670;11.936;2022-09-17T02:59:16;0.13;;;0.10;;
62475;SDS011;50739;45.670;11.936;2022-09-17T03:04:22;0.00;;;0.00;;
62475;SDS011;50739;45.670;11.936;2022-09-17T03:09:27;0.70;;;0.10;;
62475;SDS011;50739;45.670;11.936;2022-09-17T03:14:28;1.33;;;0.13;;
62475;SDS011;50739;45.670;11.936;2022-09-17T03:19:31;0.10;;;0.00;;
62475;SDS011;50739;45.670;11.936;2022-09-17T03:24:33;0.45;;;0.10;;
62475;SDS011;50739;45.670;11.936;2022-09-17T03:29:35;0.60;;;0.20;;
62475;SDS011;50739;45.670;11.936;2022-09-17T03:34:38;0.93;;;0.13;;
62475;SDS011;50739;45.670;11.936;2022-09-17T03:39:40;1.30;;;0.30;;
62475;SDS011;50739;45.670;11.936;2022-09-17T03:44:42;1.10;;;0.10;;
62475;SDS011;50739;45.670;11.936;2022-09-17T03:49:45;0.17;;;0.10;;
62475;SDS011;50739;45.670;11.936;2022-09-17T03:54:47;0.75;;;0.10;;
62475;SDS011;50739;45.670;11.936;2022-09-17T03:59:49;1.40;;;0.00;;
62475;SDS011;50739;45.670;11.936;2022-09-17T04:04:52;0.50;;;0.10;;
62475;SDS011;50739;45.670;11.936;2022-09-17T04:09:54;0.10;;;0.00;;
62475;SDS011;50739;45.670;11.936;2022-09-17T04:14:56;0.40;;;0.10;;
62475;SDS011;50739;45.670;11.936;2022-09-17T04:20:02;0.50;;;0.10;;
62475;SDS011;50739;45.670;11.936;2022-09-17T04:25:05;0.95;;;0.20;;
62475;SDS011;50739;45.670;11.936;2022-09-17T04:30:08;0.50;;;0.20;;
62475;SDS011;50739;45.670;11.936;2022-09-17T04:35:11;0.43;;;0.20;;
62475;SDS011;50739;45.670;11.936;2022-09-17T04:40:13;1.10;;;0.22;;
62475;SDS011;50739;45.670;11.936;2022-09-17T04:45:15;1.33;;;0.20;;
62475;SDS011;50739;45.670;11.936;2022-09-17T04:50:19;0.52;;;0.20;;
62475;SDS011;50739;45.670;11.936;2022-09-17T04:55:22;0.60;;;0.20;;
62475;SDS011;50739;45.670;11.936;2022-09-17T05:00:24;0.10;;;0.10;;
62475;SDS011;50739;45.670;11.936;2022-09-17T05:05:27;0.33;;;0.20;;
62475;SDS011;50739;45.670;11.936;2022-09-17T05:10:29;0.30;;;0.00;;
62475;SDS011;50739;45.670;11.936;2022-09-17T05:15:31;0.15;;;0.10;;
62475;SDS011;50739;45.670;11.936;2022-09-17T05:20:34;1.10;;;0.30;;
62475;SDS011;50739;45.670;11.936;2022-09-17T05:25:36;0.13;;;0.10;;
62475;SDS011;50739;45.670;11.936;2022-09-17T05:30:38;1.50;;;0.20;;
62475;SDS011;50739;45.670;11.936;2022-09-17T05:35:42;1.15;;;0.70;;
62475;SDS011;50739;45.670;11.936;2022-09-17T05:40:44;0.33;;;0.10;;
62475;SDS011;50739;45.670;11.936;2022-09-17T05:45:46;1.00;;;0.20;;
62475;SDS011;50739;45.670;11.936;2022-09-17T05:50:49;1.40;;;0.20;;
62475;SDS011;50739;45.670;11.936;2022-09-17T05:55:54;0.80;;;0.13;;
62475;SDS011;50739;45.670;11.936;2022-09-17T06:00:59;0.50;;;0.20;;
62475;SDS011;50739;45.670;11.936;2022-09-17T06:06:02;0.52;;;0.30;;
62475;SDS011;50739;45.670;11.936;2022-09-17T06:11:04;2.40;;;0.20;;
62475;SDS011;50739;45.670;11.936;2022-09-17T06:16:07;1.23;;;0.70;;
62475;SDS011;50739;45.670;11.936;2022-09-17T06:21:10;2.60;;;1.27;;
62475;SDS011;50739;45.670;11.936;2022-09-17T06:26:12;0.45;;;0.20;;
62475;SDS011;50739;45.670;11.936;2022-09-17T06:31:14;1.08;;;0.30;;
62475;SDS011;50739;45.670;11.936;2022-09-17T06:36:17;1.30;;;0.20;;
62475;SDS011;50739;45.670;11.936;2022-09-17T06:41:19;0.60;;;0.20;;
62475;SDS011;50739;45.670;11.936;2022-09-17T06:46:20;1.10;;;0.20;;
62475;SDS011;50739;45.670;11.936;2022-09-17T06:51:24;0.30;;;0.30;;
62475;SDS011;50739;45.670;11.936;2022-09-17T06:56:26;3.65;;;0.30;;
62475;SDS011;50739;45.670;11.936;2022-09-17T07:01:27;1.30;;;0.30;;
62475;SDS011;50739;45.670;11.936;2022-09-17T07:06:30;1.20;;;0.20;;
62475;SDS011;50739;45.670;11.936;2022-09-17T07:11:32;0.40;;;0.30;;
62475;SDS011;50739;45.670;11.936;2022-09-17T07:16:34;0.75;;;0.30;;
62475;SDS011;50739;45.670;11.936;2022-09-17T07:21:37;0.70;;;0.40;;
62475;SDS011;50739;45.670;11.936;2022-09-17T07:26:39;1.10;;;0.75;;
62475;SDS011;50739;45.670;11.936;2022-09-17T07:31:41;1.40;;;0.40;;
62475;SDS011;50739;45.670;11.936;2022-09-17T07:36:44;1.07;;;0.40;;
62475;SDS011;50739;45.670;11.936;2022-09-17T07:41:46;1.27;;;0.43;;
62475;SDS011;50739;45.670;11.936;2022-09-17T07:46:47;0.88;;;0.60;;
62475;SDS011;50739;45.670;11.936;2022-09-17T07:51:51;1.23;;;0.70;;
62475;SDS011;50739;45.670;11.936;2022-09-17T07:56:53;0.82;;;0.50;;
62475;SDS011;50739;45.670;11.936;2022-09-17T08:01:55;1.17;;;0.70;;
62475;SDS011;50739;45.670;11.936;2022-09-17T08:06:58;1.37;;;0.53;;
62475;SDS011;50739;45.670;11.936;2022-09-17T08:12:00;1.00;;;0.60;;
62475;SDS011;50739;45.670;11.936;2022-09-17T08:17:05;1.15;;;0.50;;
62475;SDS011;50739;45.670;11.936;2022-09-17T08:22:08;1.50;;;0.68;;
62475;SDS011;50739;45.670;11.936;2022-09-17T08:27:10;0.70;;;0.60;;
62475;SDS011;50739;45.670;11.936;2022-09-17T08:32:12;0.50;;;0.50;;
62475;SDS011;50739;45.670;11.936;2022-09-17T08:37:15;0.50;;;0.50;;
62475;SDS011;50739;45.670;11.936;2022-09-17T08:42:18;0.85;;;0.55;;
62475;SDS011;50739;45.670;11.936;2022-09-17T08:47:26;0.75;;;0.50;;
62475;SDS011;50739;45.670;11.936;2022-09-17T08:52:37;1.30;;;0.50;;
62475;SDS011;50739;45.670;11.936;2022-09-17T08:57:51;0.63;;;0.52;;
62475;SDS011;50739;45.670;11.936;2022-09-17T09:03:06;0.50;;;0.43;;
62475;SDS011;50739;45.670;11.936;2022-09-17T09:08:24;1.67;;;0.80;;
62475;SDS011;50739;45.670;11.936;2022-09-17T09:13:32;1.20;;;0.60;;
62475;SDS011;50739;45.670;11.936;2022-09-17T09:18:37;0.90;;;0.57;;
62475;SDS011;50739;45.670;11.936;2022-09-17T09:23:43;1.10;;;0.55;;
62475;SDS011;50739;45.670;11.936;2022-09-17T09:28:56;1.95;;;0.90;;
62475;SDS011;50739;45.670;11.936;2022-09-17T09:34:04;0.50;;;0.50;;
62475;SDS011;50739;45.670;11.936;2022-09-17T09:39:11;0.80;;;0.70;;
62475;SDS011;50739;45.670;11.936;2022-09-17T09:44:17;0.80;;;0.50;;
62475;SDS011;50739;45.670;11.936;2022-09-17T09:49:21;0.45;;;0.30;;
62475;SDS011;50739;45.670;11.936;2022-09-17T09:54:40;0.50;;;0.40;;
62475;SDS011;50739;45.670;11.936;2022-09-17T09:59:51;0.30;;;0.30;;
62475;SDS011;50739;45.670;11.936;2022-09-17T10:05:22;0.38;;;0.30;;
62475;SDS011;50739;45.670;11.936;2022-09-17T10:10:24;0.70;;;0.35;;
62475;SDS011;50739;45.670;11.936;2022-09-17T10:15:27;1.10;;;0.40;;
62475;SDS011;50739;45.670;11.936;2022-09-17T10:20:29;0.30;;;0.30;;
62475;SDS011;50739;45.670;11.936;2022-09-17T10:25:31;0.30;;;0.28;;
62475;SDS011;50739;45.670;11.936;2022-09-17T10:30:36;0.73;;;0.20;;
62475;SDS011;50739;45.670;11.936;2022-09-17T10:35:37;0.30;;;0.20;;
62475;SDS011;50739;45.670;11.936;2022-09-17T10:40:39;0.50;;;0.40;;
62475;SDS011;50739;45.670;11.936;2022-09-17T10:45:45;0.60;;;0.30;;
62475;SDS011;50739;45.670;11.936;2022-09-17T10:50:56;0.60;;;0.30;;
62475;SDS011;50739;45.670;11.936;2022-09-17T10:56:03;0.37;;;0.30;;
62475;SDS011;50739;45.670;11.936;2022-09-17T11:01:18;0.53;;;0.30;;
62475;SDS011;50739;45.670;11.936;2022-09-17T11:06:37;0.43;;;0.33;;
62475;SDS011;50739;45.670;11.936;2022-09-17T11:12:01;0.28;;;0.28;;
62475;SDS011;50739;45.670;11.936;2022-09-17T11:17:23;0.47;;;0.30;;
62475;SDS011;50739;45.670;11.936;2022-09-17T11:22:45;0.57;;;0.23;;
62475;SDS011;50739;45.670;11.936;2022-09-17T11:27:59;1.23;;;0.20;;
62475;SDS011;50739;45.670;11.936;2022-09-17T11:38:41;1.20;;;0.20;;
62475;SDS011;50739;45.670;11.936;2022-09-17T11:43:49;0.40;;;0.20;;
62475;SDS011;50739;45.670;11.936;2022-09-17T11:49:01;0.25;;;0.20;;
62475;SDS011;50739;45.670;11.936;2022-09-17T11:54:13;0.30;;;0.30;;
62475;SDS011;50739;45.670;11.936;2022-09-17T11:59:21;0.10;;;0.10;;
62475;SDS011;50739;45.670;11.936;2022-09-17T12:04:34;0.20;;;0.20;;
62475;SDS011;50739;45.670;11.936;2022-09-17T12:09:43;0.17;;;0.10;;
62475;SDS011;50739;45.670;11.936;2022-09-17T12:14:50;1.13;;;0.40;;
62475;SDS011;50739;45.670;11.936;2022-09-17T12:19:56;0.50;;;0.20;;
62475;SDS011;50739;45.670;11.936;2022-09-17T12:25:04;0.33;;;0.20;;
62475;SDS011;50739;45.670;11.936;2022-09-17T12:30:10;0.40;;;0.20;;
62475;SDS011;50739;45.670;11.936;2022-09-17T12:35:16;0.52;;;0.20;;
62475;SDS011;50739;45.670;11.936;2022-09-17T12:40:28;0.28;;;0.28;;
62475;SDS011;50739;45.670;11.936;2022-09-17T12:45:39;0.40;;;0.23;;
62475;SDS011;50739;45.670;11.936;2022-09-17T12:50:53;0.27;;;0.20;;
62475;SDS011;50739;45.670;11.936;2022-09-17T12:56:07;0.33;;;0.30;;
62475;SDS011;50739;45.670;11.936;2022-09-17T13:01:19;0.30;;;0.30;;
62475;SDS011;50739;45.670;11.936;2022-09-17T13:06:33;0.80;;;0.40;;
62475;SDS011;50739;45.670;11.936;2022-09-17T13:12:06;1.10;;;0.52;;
62475;SDS011;50739;45.670;11.936;2022-09-17T13:17:16;0.57;;;0.50;;
62475;SDS011;50739;45.670;11.936;2022-09-17T13:22:24;0.50;;;0.40;;
62475;SDS011;50739;45.670;11.936;2022-09-17T13:27:30;0.60;;;0.30;;
62475;SDS011;50739;45.670;11.936;2022-09-17T13:32:46;0.20;;;0.20;;
62475;SDS011;50739;45.670;11.936;2022-09-17T13:37:53;0.80;;;0.20;;
62475;SDS011;50739;45.670;11.936;2022-09-17T13:42:58;0.20;;;0.10;;
62475;SDS011;50739;45.670;11.936;2022-09-17T13:48:08;0.20;;;0.20;;
62475;SDS011;50739;45.670;11.936;2022-09-17T13:53:15;0.40;;;0.20;;
62475;SDS011;50739;45.670;11.936;2022-09-17T13:58:22;1.30;;;0.25;;
62475;SDS011;50739;45.670;11.936;2022-09-17T14:08:50;0.15;;;0.15;;
62475;SDS011;50739;45.670;11.936;2022-09-17T14:13:55;0.10;;;0.10;;
62475;SDS011;50739;45.670;11.936;2022-09-17T14:18:58;0.10;;;0.10;;
62475;SDS011;50739;45.670;11.936;2022-09-17T14:24:01;1.10;;;0.10;;
62475;SDS011;50739;45.670;11.936;2022-09-17T14:29:11;0.27;;;0.20;;
62475;SDS011;50739;45.670;11.936;2022-09-17T14:34:22;0.25;;;0.20;;
62475;SDS011;50739;45.670;11.936;2022-09-17T14:39:26;1.50;;;0.10;;
62475;SDS011;50739;45.670;11.936;2022-09-17T14:44:43;0.70;;;0.32;;
62475;SDS011;50739;45.670;11.936;2022-09-17T14:49:50;0.20;;;0.20;;
62475;SDS011;50739;45.670;11.936;2022-09-17T14:55:08;0.90;;;0.20;;
62475;SDS011;50739;45.670;11.936;2022-09-17T15:00:23;1.10;;;0.30;;
62475;SDS011;50739;45.670;11.936;2022-09-17T15:05:26;0.45;;;0.20;;
62475;SDS011;50739;45.670;11.936;2022-09-17T15:10:31;0.90;;;0.30;;
62475;SDS011;50739;45.670;11.936;2022-09-17T15:15:36;0.20;;;0.20;;
62475;SDS011;50739;45.670;11.936;2022-09-17T15:20:39;0.60;;;0.20;;
62475;SDS011;50739;45.670;11.936;2022-09-17T15:25:41;0.90;;;0.20;;
62475;SDS011;50739;45.670;11.936;2022-09-17T15:30:47;0.30;;;0.20;;
62475;SDS011;50739;45.670;11.936;2022-09-17T15:35:57;0.68;;;0.30;;
62475;SDS011;50739;45.670;11.936;2022-09-17T15:41:24;0.60;;;0.30;;
62475;SDS011;50739;45.670;11.936;2022-09-17T15:46:31;1.25;;;0.30;;
62475;SDS011;50739;45.670;11.936;2022-09-17T15:51:33;0.70;;;0.30;;
62475;SDS011;50739;45.670;11.936;2022-09-17T15:56:36;0.60;;;0.32;;
62475;SDS011;50739;45.670;11.936;2022-09-17T16:01:52;1.80;;;0.30;;
62475;SDS011;50739;45.670;11.936;2022-09-17T16:12:27;0.40;;;0.30;;
62475;SDS011;50739;45.670;11.936;2022-09-17T16:17:31;1.15;;;0.30;;
62475;SDS011;50739;45.670;11.936;2022-09-17T16:22:35;1.02;;;0.38;;
62475;SDS011;50739;45.670;11.936;2022-09-17T16:27:48;0.55;;;0.30;;
62475;SDS011;50739;45.670;11.936;2022-09-17T16:32:53;0.90;;;0.40;;
62475;SDS011;50739;45.670;11.936;2022-09-17T16:37:55;0.57;;;0.30;;
62475;SDS011;50739;45.670;11.936;2022-09-17T16:42:58;1.40;;;0.50;;
62475;SDS011;50739;45.670;11.936;2022-09-17T16:48:02;0.65;;;0.40;;
62475;SDS011;50739;45.670;11.936;2022-09-17T16:53:04;0.30;;;0.30;;
62475;SDS011;50739;45.670;11.936;2022-09-17T16:58:06;1.10;;;0.40;;
62475;SDS011;50739;45.670;11.936;2022-09-17T17:03:10;1.23;;;0.60;;
62475;SDS011;50739;45.670;11.936;2022-09-17T17:08:13;1.23;;;0.70;;
62475;SDS011;50739;45.670;11.936;2022-09-17T17:13:15;2.08;;;0.57;;
62475;SDS011;50739;45.670;11.936;2022-09-17T17:18:20;0.52;;;0.52;;
62475;SDS011;50739;45.670;11.936;2022-09-17T17:23:21;0.82;;;0.40;;
62475;SDS011;50739;45.670;11.936;2022-09-17T17:28:23;1.80;;;0.50;;
62475;SDS011;50739;45.670;11.936;2022-09-17T17:33:26;2.80;;;1.10;;
62475;SDS011;50739;45.670;11.936;2022-09-17T17:38:28;2.80;;;1.00;;
62475;SDS011;50739;45.670;11.936;2022-09-17T17:43:31;1.00;;;0.70;;
62475;SDS011;50739;45.670;11.936;2022-09-17T17:48:34;0.90;;;0.50;;
62475;SDS011;50739;45.670;11.936;2022-09-17T17:53:36;1.38;;;0.55;;
62475;SDS011;50739;45.670;11.936;2022-09-17T17:58:41;1.52;;;0.50;;
62475;SDS011;50739;45.670;11.936;2022-09-17T18:03:44;1.10;;;0.60;;
62475;SDS011;50739;45.670;11.936;2022-09-17T18:08:46;2.55;;;0.80;;
62475;SDS011;50739;45.670;11.936;2022-09-17T18:13:49;1.73;;;0.80;;
62475;SDS011;50739;45.670;11.936;2022-09-17T18:18:53;3.05;;;1.05;;
62475;SDS011;50739;45.670;11.936;2022-09-17T18:23:56;1.50;;;0.80;;
62475;SDS011;50739;45.670;11.936;2022-09-17T18:28:58;1.92;;;1.10;;
62475;SDS011;50739;45.670;11.936;2022-09-17T18:34:02;1.20;;;1.00;;
62475;SDS011;50739;45.670;11.936;2022-09-17T18:39:05;1.33;;;0.70;;
62475;SDS011;50739;45.670;11.936;2022-09-17T18:44:09;3.00;;;1.05;;
62475;SDS011;50739;45.670;11.936;2022-09-17T18:49:12;1.30;;;1.03;;
62475;SDS011;50739;45.670;11.936;2022-09-17T18:54:14;1.70;;;0.90;;
62475;SDS011;50739;45.670;11.936;2022-09-17T18:59:16;1.60;;;1.00;;
62475;SDS011;50739;45.670;11.936;2022-09-17T19:04:19;1.90;;;0.80;;
62475;SDS011;50739;45.670;11.936;2022-09-17T19:09:22;1.88;;;1.08;;
62475;SDS011;50739;45.670;11.936;2022-09-17T19:14:24;1.58;;;0.80;;
62475;SDS011;50739;45.670;11.936;2022-09-17T19:19:27;1.90;;;0.77;;
62475;SDS011;50739;45.670;11.936;2022-09-17T19:24:29;1.65;;;0.93;;
62475;SDS011;50739;45.670;11.936;2022-09-17T19:29:32;2.08;;;1.10;;
62475;SDS011;50739;45.670;11.936;2022-09-17T19:34:35;3.65;;;1.13;;
62475;SDS011;50739;45.670;11.936;2022-09-17T19:39:37;2.70;;;1.20;;
62475;SDS011;50739;45.670;11.936;2022-09-17T19:44:39;1.17;;;0.90;;
62475;SDS011;50739;45.670;11.936;2022-09-17T19:49:42;3.00;;;1.20;;
62475;SDS011;50739;45.670;11.936;2022-09-17T19:54:46;1.92;;;1.40;;
62475;SDS011;50739;45.670;11.936;2022-09-17T19:59:48;1.90;;;1.70;;
62475;SDS011;50739;45.670;11.936;2022-09-17T20:04:51;1.30;;;1.20;;
62475;SDS011;50739;45.670;11.936;2022-09-17T20:09:53;1.92;;;1.48;;
62475;SDS011;50739;45.670;11.936;2022-09-17T20:14:54;1.83;;;1.63;;
62475;SDS011;50739;45.670;11.936;2022-09-17T20:19:58;3.85;;;1.70;;
62475;SDS011;50739;45.670;11.936;2022-09-17T20:25:00;1.60;;;1.50;;
62475;SDS011;50739;45.670;11.936;2022-09-17T20:30:02;3.73;;;2.10;;
62475;SDS011;50739;45.670;11.936;2022-09-17T20:35:06;3.55;;;1.73;;
62475;SDS011;50739;45.670;11.936;2022-09-17T20:40:08;1.83;;;1.45;;
62475;SDS011;50739;45.670;11.936;2022-09-17T20:45:10;2.38;;;1.80;;
62475;SDS011;50739;45.670;11.936;2022-09-17T20:50:14;2.97;;;1.90;;
62475;SDS011;50739;45.670;11.936;2022-09-17T20:55:16;3.00;;;1.60;;
62475;SDS011;50739;45.670;11.936;2022-09-17T21:00:18;3.90;;;2.00;;
62475;SDS011;50739;45.670;11.936;2022-09-17T21:05:22;3.22;;;2.22;;
62475;SDS011;50739;45.670;11.936;2022-09-17T21:10:24;3.38;;;1.83;;
62475;SDS011;50739;45.670;11.936;2022-09-17T21:15:25;5.40;;;2.53;;
62475;SDS011;50739;45.670;11.936;2022-09-17T21:20:29;2.35;;;1.83;;
62475;SDS011;50739;45.670;11.936;2022-09-17T21:25:32;3.30;;;2.13;;
62475;SDS011;50739;45.670;11.936;2022-09-17T21:30:33;1.95;;;1.77;;
62475;SDS011;50739;45.670;11.936;2022-09-17T21:35:37;2.23;;;2.03;;
62475;SDS011;50739;45.670;11.936;2022-09-17T21:40:38;3.45;;;2.30;;
62475;SDS011;50739;45.670;11.936;2022-09-17T21:45:41;4.00;;;2.80;;
62475;SDS011;50739;45.670;11.936;2022-09-17T21:50:46;3.55;;;2.80;;
62475;SDS011;50739;45.670;11.936;2022-09-17T21:55:47;3.33;;;3.03;;
62475;SDS011;50739;45.670;11.936;2022-09-17T22:00:49;4.72;;;3.25;;
62475;SDS011;50739;45.670;11.936;2022-09-17T22:05:53;4.60;;;2.90;;
62475;SDS011;50739;45.670;11.936;2022-09-17T22:10:58;4.68;;;3.03;;
62475;SDS011;50739;45.670;11.936;2022-09-17T22:16:01;3.78;;;3.20;;
62475;SDS011;50739;45.670;11.936;2022-09-17T22:21:11;3.42;;;3.05;;
62475;SDS011;50739;45.670;11.936;2022-09-17T22:26:14;4.22;;;3.22;;
62475;SDS011;50739;45.670;11.936;2022-09-17T22:31:16;3.45;;;3.13;;
62475;SDS011;50739;45.670;11.936;2022-09-17T22:36:21;3.33;;;3.00;;
62475;SDS011;50739;45.670;11.936;2022-09-17T22:41:24;3.22;;;2.50;;
62475;SDS011;50739;45.670;11.936;2022-09-17T22:46:28;2.67;;;2.47;;
62475;SDS011;50739;45.670;11.936;2022-09-17T22:51:33;3.28;;;2.60;;
62475;SDS011;50739;45.670;11.936;2022-09-17T22:56:35;3.80;;;2.40;;
62475;SDS011;50739;45.670;11.936;2022-09-17T23:01:38;3.03;;;2.60;;
62475;SDS011;50739;45.670;11.936;2022-09-17T23:06:42;3.53;;;2.30;;
62475;SDS011;50739;45.670;11.936;2022-09-17T23:11:46;7.05;;;2.70;;
62475;SDS011;50739;45.670;11.936;2022-09-17T23:16:47;4.17;;;3.23;;
62475;SDS011;50739;45.670;11.936;2022-09-17T23:21:51;4.45;;;3.30;;
62475;SDS011;50739;45.670;11.936;2022-09-17T23:26:53;4.70;;;3.10;;
62475;SDS011;50739;45.670;11.936;2022-09-17T23:31:55;3.20;;;2.90;;
62475;SDS011;50739;45.670;11.936;2022-09-17T23:36:59;3.58;;;2.70;;
62475;SDS011;50739;45.670;11.936;2022-09-17T23:42:02;3.38;;;2.83;;
62475;SDS011;50739;45.670;11.936;2022-09-17T23:47:04;3.95;;;2.92;;
62475;SDS011;50739;45.670;11.936;2022-09-17T23:52:07;4.00;;;2.90;;
62475;SDS011;50739;45.670;11.936;2022-09-17T23:57:09;3.50;;;2.90;;
